sensor_id;sensor_type;location;lat;lon;timestamp;P1;durP1;ratioP1;P2;durP2;ratioP2
8333;SDS011;4204;43.004;23.052;2022-10-26T00:01:18;9.15;;;6.55;;
8333;SDS011;4204;43.004;23.052;2022-10-26T00:03:47;12.80;;;7.00;;
8333;SDS011;4204;43.004;23.052;2022-10-26T00:06:15;15.10;;;7.30;;
8333;SDS011;4204;43.004;23.052;2022-10-26T00:08:45;11.57;;;6.77;;
8333;SDS011;4204;43.004;23.052;2022-10-26T00:11:13;10.03;;;6.93;;
8333;SDS011;4204;43.004;23.052;2022-10-26T00:13:41;17.33;;;6.97;;
8333;SDS011;4204;43.004;23.052;2022-10-26T00:16:10;12.73;;;7.17;;
8333;SDS011;4204;43.004;23.052;2022-10-26T00:18:40;10.50;;;6.50;;
8333;SDS011;4204;43.004;23.052;2022-10-26T00:21:10;11.33;;;5.93;;
8333;SDS011;4204;43.004;23.052;2022-10-26T00:23:38;10.10;;;6.30;;
8333;SDS011;4204;43.004;23.052;2022-10-26T00:26:06;10.53;;;6.87;;
8333;SDS011;4204;43.004;23.052;2022-10-26T00:28:34;12.33;;;7.10;;
8333;SDS011;4204;43.004;23.052;2022-10-26T00:31:04;12.33;;;6.70;;
8333;SDS011;4204;43.004;23.052;2022-10-26T00:33:33;13.03;;;6.20;;
8333;SDS011;4204;43.004;23.052;2022-10-26T00:36:01;10.50;;;6.37;;
8333;SDS011;4204;43.004;23.052;2022-10-26T00:38:31;10.83;;;6.70;;
8333;SDS011;4204;43.004;23.052;2022-10-26T00:40:58;10.27;;;6.20;;
8333;SDS011;4204;43.004;23.052;2022-10-26T00:43:33;14.30;;;7.20;;
8333;SDS011;4204;43.004;23.052;2022-10-26T00:46:02;12.33;;;6.53;;
8333;SDS011;4204;43.004;23.052;2022-10-26T00:48:34;13.60;;;6.83;;
8333;SDS011;4204;43.004;23.052;2022-10-26T00:51:05;14.43;;;6.90;;
8333;SDS011;4204;43.004;23.052;2022-10-26T00:53:36;13.03;;;6.70;;
8333;SDS011;4204;43.004;23.052;2022-10-26T00:56:05;11.43;;;6.50;;
8333;SDS011;4204;43.004;23.052;2022-10-26T00:58:34;11.53;;;6.70;;
8333;SDS011;4204;43.004;23.052;2022-10-26T01:01:03;9.87;;;6.17;;
8333;SDS011;4204;43.004;23.052;2022-10-26T01:03:31;12.20;;;6.57;;
8333;SDS011;4204;43.004;23.052;2022-10-26T01:06:00;13.47;;;6.73;;
8333;SDS011;4204;43.004;23.052;2022-10-26T01:08:30;15.10;;;7.00;;
8333;SDS011;4204;43.004;23.052;2022-10-26T01:11:00;11.27;;;7.47;;
8333;SDS011;4204;43.004;23.052;2022-10-26T01:13:28;12.33;;;7.77;;
8333;SDS011;4204;43.004;23.052;2022-10-26T01:16:02;11.93;;;7.27;;
8333;SDS011;4204;43.004;23.052;2022-10-26T01:18:44;13.93;;;6.83;;
8333;SDS011;4204;43.004;23.052;2022-10-26T01:21:38;11.57;;;7.23;;
8333;SDS011;4204;43.004;23.052;2022-10-26T01:24:20;11.00;;;6.80;;
8333;SDS011;4204;43.004;23.052;2022-10-26T01:27:11;10.23;;;6.00;;
8333;SDS011;4204;43.004;23.052;2022-10-26T01:32:50;12.97;;;6.50;;
8333;SDS011;4204;43.004;23.052;2022-10-26T01:35:41;8.40;;;5.97;;
8333;SDS011;4204;43.004;23.052;2022-10-26T01:38:19;11.77;;;6.37;;
8333;SDS011;4204;43.004;23.052;2022-10-26T01:40:53;12.00;;;6.80;;
8333;SDS011;4204;43.004;23.052;2022-10-26T01:43:27;9.20;;;6.27;;
8333;SDS011;4204;43.004;23.052;2022-10-26T01:46:01;12.47;;;6.33;;
8333;SDS011;4204;43.004;23.052;2022-10-26T01:48:30;10.83;;;6.80;;
8333;SDS011;4204;43.004;23.052;2022-10-26T01:51:00;10.33;;;6.20;;
8333;SDS011;4204;43.004;23.052;2022-10-26T01:53:30;8.67;;;5.83;;
8333;SDS011;4204;43.004;23.052;2022-10-26T01:55:58;7.83;;;5.87;;
8333;SDS011;4204;43.004;23.052;2022-10-26T01:58:42;11.77;;;6.60;;
8333;SDS011;4204;43.004;23.052;2022-10-26T02:04:43;10.63;;;5.83;;
8333;SDS011;4204;43.004;23.052;2022-10-26T02:07:27;11.20;;;6.80;;
8333;SDS011;4204;43.004;23.052;2022-10-26T02:10:03;11.70;;;6.23;;
8333;SDS011;4204;43.004;23.052;2022-10-26T02:12:41;11.70;;;6.10;;
8333;SDS011;4204;43.004;23.052;2022-10-26T02:15:16;11.30;;;6.57;;
8333;SDS011;4204;43.004;23.052;2022-10-26T02:17:49;12.90;;;6.40;;
8333;SDS011;4204;43.004;23.052;2022-10-26T02:20:25;10.97;;;6.40;;
8333;SDS011;4204;43.004;23.052;2022-10-26T02:22:57;8.43;;;6.13;;
8333;SDS011;4204;43.004;23.052;2022-10-26T02:25:30;10.40;;;5.93;;
8333;SDS011;4204;43.004;23.052;2022-10-26T02:28:03;11.23;;;6.37;;
8333;SDS011;4204;43.004;23.052;2022-10-26T02:30:33;9.83;;;6.57;;
8333;SDS011;4204;43.004;23.052;2022-10-26T02:33:04;8.80;;;6.43;;
8333;SDS011;4204;43.004;23.052;2022-10-26T02:35:35;11.13;;;7.20;;
8333;SDS011;4204;43.004;23.052;2022-10-26T02:38:06;9.60;;;6.07;;
8333;SDS011;4204;43.004;23.052;2022-10-26T02:40:36;14.43;;;6.07;;
8333;SDS011;4204;43.004;23.052;2022-10-26T02:43:06;10.50;;;6.23;;
8333;SDS011;4204;43.004;23.052;2022-10-26T02:45:40;10.90;;;5.90;;
8333;SDS011;4204;43.004;23.052;2022-10-26T02:48:12;11.13;;;5.87;;
8333;SDS011;4204;43.004;23.052;2022-10-26T02:50:43;10.70;;;6.60;;
8333;SDS011;4204;43.004;23.052;2022-10-26T02:53:21;9.57;;;6.40;;
8333;SDS011;4204;43.004;23.052;2022-10-26T02:55:53;11.93;;;6.10;;
8333;SDS011;4204;43.004;23.052;2022-10-26T02:58:22;12.50;;;5.93;;
8333;SDS011;4204;43.004;23.052;2022-10-26T03:00:54;10.83;;;6.73;;
8333;SDS011;4204;43.004;23.052;2022-10-26T03:03:24;10.50;;;6.93;;
8333;SDS011;4204;43.004;23.052;2022-10-26T03:05:53;11.63;;;6.80;;
8333;SDS011;4204;43.004;23.052;2022-10-26T03:08:20;10.60;;;6.60;;
8333;SDS011;4204;43.004;23.052;2022-10-26T03:10:49;9.73;;;6.00;;
8333;SDS011;4204;43.004;23.052;2022-10-26T03:13:17;11.47;;;7.30;;
8333;SDS011;4204;43.004;23.052;2022-10-26T03:15:45;14.73;;;7.20;;
8333;SDS011;4204;43.004;23.052;2022-10-26T03:18:12;8.43;;;6.60;;
8333;SDS011;4204;43.004;23.052;2022-10-26T03:20:42;8.93;;;6.60;;
8333;SDS011;4204;43.004;23.052;2022-10-26T03:23:11;11.00;;;7.27;;
8333;SDS011;4204;43.004;23.052;2022-10-26T03:25:39;15.10;;;6.83;;
8333;SDS011;4204;43.004;23.052;2022-10-26T03:28:07;10.50;;;6.57;;
8333;SDS011;4204;43.004;23.052;2022-10-26T03:30:35;11.87;;;6.73;;
8333;SDS011;4204;43.004;23.052;2022-10-26T03:33:03;10.13;;;6.07;;
8333;SDS011;4204;43.004;23.052;2022-10-26T03:35:30;10.77;;;6.70;;
8333;SDS011;4204;43.004;23.052;2022-10-26T03:37:58;8.27;;;6.10;;
8333;SDS011;4204;43.004;23.052;2022-10-26T03:40:27;13.53;;;7.27;;
8333;SDS011;4204;43.004;23.052;2022-10-26T03:42:54;8.70;;;6.50;;
8333;SDS011;4204;43.004;23.052;2022-10-26T03:45:22;9.90;;;6.97;;
8333;SDS011;4204;43.004;23.052;2022-10-26T03:47:50;12.00;;;7.30;;
8333;SDS011;4204;43.004;23.052;2022-10-26T03:50:18;13.90;;;6.90;;
8333;SDS011;4204;43.004;23.052;2022-10-26T03:52:47;10.20;;;6.57;;
8333;SDS011;4204;43.004;23.052;2022-10-26T03:55:16;13.60;;;6.90;;
8333;SDS011;4204;43.004;23.052;2022-10-26T03:57:45;10.27;;;6.33;;
8333;SDS011;4204;43.004;23.052;2022-10-26T04:00:14;12.13;;;7.07;;
8333;SDS011;4204;43.004;23.052;2022-10-26T04:02:43;9.97;;;6.27;;
8333;SDS011;4204;43.004;23.052;2022-10-26T04:05:14;11.83;;;6.90;;
8333;SDS011;4204;43.004;23.052;2022-10-26T04:07:42;13.13;;;7.13;;
8333;SDS011;4204;43.004;23.052;2022-10-26T04:10:09;10.93;;;6.10;;
8333;SDS011;4204;43.004;23.052;2022-10-26T04:12:37;8.07;;;6.07;;
8333;SDS011;4204;43.004;23.052;2022-10-26T04:15:07;12.27;;;6.47;;
8333;SDS011;4204;43.004;23.052;2022-10-26T04:17:35;11.80;;;6.53;;
8333;SDS011;4204;43.004;23.052;2022-10-26T04:20:03;12.67;;;6.87;;
8333;SDS011;4204;43.004;23.052;2022-10-26T04:22:31;10.70;;;6.63;;
8333;SDS011;4204;43.004;23.052;2022-10-26T04:24:59;12.73;;;7.17;;
8333;SDS011;4204;43.004;23.052;2022-10-26T04:27:26;13.67;;;7.03;;
8333;SDS011;4204;43.004;23.052;2022-10-26T04:29:54;12.97;;;7.00;;
8333;SDS011;4204;43.004;23.052;2022-10-26T04:32:23;11.30;;;6.97;;
8333;SDS011;4204;43.004;23.052;2022-10-26T04:34:51;11.83;;;6.90;;
8333;SDS011;4204;43.004;23.052;2022-10-26T04:37:19;12.07;;;6.87;;
8333;SDS011;4204;43.004;23.052;2022-10-26T04:39:47;13.07;;;7.37;;
8333;SDS011;4204;43.004;23.052;2022-10-26T04:42:14;15.53;;;7.87;;
8333;SDS011;4204;43.004;23.052;2022-10-26T04:44:42;11.13;;;7.30;;
8333;SDS011;4204;43.004;23.052;2022-10-26T04:47:10;12.77;;;7.00;;
8333;SDS011;4204;43.004;23.052;2022-10-26T04:49:39;12.27;;;6.37;;
8333;SDS011;4204;43.004;23.052;2022-10-26T04:52:06;12.00;;;6.90;;
8333;SDS011;4204;43.004;23.052;2022-10-26T04:54:34;10.33;;;7.23;;
8333;SDS011;4204;43.004;23.052;2022-10-26T04:57:01;12.73;;;6.70;;
8333;SDS011;4204;43.004;23.052;2022-10-26T04:59:29;12.70;;;6.70;;
8333;SDS011;4204;43.004;23.052;2022-10-26T05:01:57;9.60;;;6.60;;
8333;SDS011;4204;43.004;23.052;2022-10-26T05:04:24;14.87;;;6.87;;
8333;SDS011;4204;43.004;23.052;2022-10-26T05:06:53;11.50;;;6.87;;
8333;SDS011;4204;43.004;23.052;2022-10-26T05:09:21;16.27;;;7.07;;
8333;SDS011;4204;43.004;23.052;2022-10-26T05:11:49;10.10;;;6.57;;
8333;SDS011;4204;43.004;23.052;2022-10-26T05:14:17;12.93;;;6.63;;
8333;SDS011;4204;43.004;23.052;2022-10-26T05:16:47;11.83;;;7.10;;
8333;SDS011;4204;43.004;23.052;2022-10-26T05:19:17;9.43;;;6.40;;
8333;SDS011;4204;43.004;23.052;2022-10-26T05:21:44;13.83;;;7.27;;
8333;SDS011;4204;43.004;23.052;2022-10-26T05:24:13;13.37;;;6.97;;
8333;SDS011;4204;43.004;23.052;2022-10-26T05:26:41;8.67;;;6.30;;
8333;SDS011;4204;43.004;23.052;2022-10-26T05:29:09;15.17;;;6.57;;
8333;SDS011;4204;43.004;23.052;2022-10-26T05:31:37;10.20;;;6.57;;
8333;SDS011;4204;43.004;23.052;2022-10-26T05:34:04;10.47;;;7.30;;
8333;SDS011;4204;43.004;23.052;2022-10-26T05:36:32;12.50;;;6.90;;
8333;SDS011;4204;43.004;23.052;2022-10-26T05:39:00;9.37;;;6.43;;
8333;SDS011;4204;43.004;23.052;2022-10-26T05:41:29;15.80;;;9.77;;
8333;SDS011;4204;43.004;23.052;2022-10-26T05:43:56;18.33;;;8.63;;
8333;SDS011;4204;43.004;23.052;2022-10-26T05:46:24;11.80;;;7.77;;
8333;SDS011;4204;43.004;23.052;2022-10-26T05:48:52;11.20;;;7.50;;
8333;SDS011;4204;43.004;23.052;2022-10-26T05:51:19;11.40;;;7.10;;
8333;SDS011;4204;43.004;23.052;2022-10-26T05:53:50;11.50;;;7.53;;
8333;SDS011;4204;43.004;23.052;2022-10-26T05:56:20;13.13;;;6.60;;
8333;SDS011;4204;43.004;23.052;2022-10-26T05:59:00;9.37;;;6.17;;
8333;SDS011;4204;43.004;23.052;2022-10-26T06:01:31;10.93;;;6.33;;
8333;SDS011;4204;43.004;23.052;2022-10-26T06:04:09;10.77;;;7.13;;
8333;SDS011;4204;43.004;23.052;2022-10-26T06:06:46;11.77;;;6.67;;
8333;SDS011;4204;43.004;23.052;2022-10-26T06:09:19;15.90;;;7.10;;
8333;SDS011;4204;43.004;23.052;2022-10-26T06:11:47;8.73;;;6.47;;
8333;SDS011;4204;43.004;23.052;2022-10-26T06:14:17;8.13;;;5.77;;
8333;SDS011;4204;43.004;23.052;2022-10-26T06:16:49;9.37;;;6.40;;
8333;SDS011;4204;43.004;23.052;2022-10-26T06:19:32;10.30;;;6.50;;
8333;SDS011;4204;43.004;23.052;2022-10-26T06:22:17;9.57;;;6.60;;
8333;SDS011;4204;43.004;23.052;2022-10-26T06:24:53;9.87;;;7.50;;
8333;SDS011;4204;43.004;23.052;2022-10-26T06:27:31;11.80;;;7.70;;
8333;SDS011;4204;43.004;23.052;2022-10-26T06:30:09;17.80;;;10.80;;
8333;SDS011;4204;43.004;23.052;2022-10-26T06:32:38;15.33;;;9.97;;
8333;SDS011;4204;43.004;23.052;2022-10-26T06:35:13;15.17;;;10.73;;
8333;SDS011;4204;43.004;23.052;2022-10-26T06:37:49;20.33;;;12.47;;
8333;SDS011;4204;43.004;23.052;2022-10-26T06:40:18;19.97;;;11.47;;
8333;SDS011;4204;43.004;23.052;2022-10-26T06:42:47;16.37;;;11.37;;
8333;SDS011;4204;43.004;23.052;2022-10-26T06:48:17;18.50;;;11.73;;
8333;SDS011;4204;43.004;23.052;2022-10-26T06:50:51;23.43;;;12.97;;
8333;SDS011;4204;43.004;23.052;2022-10-26T06:53:20;17.60;;;11.40;;
8333;SDS011;4204;43.004;23.052;2022-10-26T06:55:52;22.83;;;12.90;;
8333;SDS011;4204;43.004;23.052;2022-10-26T06:58:23;21.33;;;13.60;;
8333;SDS011;4204;43.004;23.052;2022-10-26T07:00:56;18.70;;;12.67;;
8333;SDS011;4204;43.004;23.052;2022-10-26T07:03:24;26.63;;;14.67;;
8333;SDS011;4204;43.004;23.052;2022-10-26T07:05:52;26.10;;;15.10;;
8333;SDS011;4204;43.004;23.052;2022-10-26T07:08:20;23.20;;;15.23;;
8333;SDS011;4204;43.004;23.052;2022-10-26T07:10:48;25.03;;;15.17;;
8333;SDS011;4204;43.004;23.052;2022-10-26T07:13:15;21.53;;;12.20;;
8333;SDS011;4204;43.004;23.052;2022-10-26T07:15:43;16.83;;;11.73;;
8333;SDS011;4204;43.004;23.052;2022-10-26T07:18:12;21.43;;;13.43;;
8333;SDS011;4204;43.004;23.052;2022-10-26T07:20:40;16.63;;;10.00;;
8333;SDS011;4204;43.004;23.052;2022-10-26T07:23:09;15.90;;;10.50;;
8333;SDS011;4204;43.004;23.052;2022-10-26T07:25:37;15.57;;;9.00;;
8333;SDS011;4204;43.004;23.052;2022-10-26T07:28:05;13.77;;;8.37;;
8333;SDS011;4204;43.004;23.052;2022-10-26T07:30:35;12.30;;;8.47;;
8333;SDS011;4204;43.004;23.052;2022-10-26T07:33:05;13.53;;;9.57;;
8333;SDS011;4204;43.004;23.052;2022-10-26T07:35:36;12.60;;;8.40;;
8333;SDS011;4204;43.004;23.052;2022-10-26T07:38:03;11.00;;;7.50;;
8333;SDS011;4204;43.004;23.052;2022-10-26T07:40:32;10.77;;;7.73;;
8333;SDS011;4204;43.004;23.052;2022-10-26T07:42:59;13.97;;;7.27;;
8333;SDS011;4204;43.004;23.052;2022-10-26T07:45:27;12.57;;;8.30;;
8333;SDS011;4204;43.004;23.052;2022-10-26T07:47:56;9.13;;;6.67;;
8333;SDS011;4204;43.004;23.052;2022-10-26T07:50:24;12.27;;;6.80;;
8333;SDS011;4204;43.004;23.052;2022-10-26T07:52:53;18.07;;;9.73;;
8333;SDS011;4204;43.004;23.052;2022-10-26T07:55:21;13.23;;;8.90;;
8333;SDS011;4204;43.004;23.052;2022-10-26T07:57:49;16.57;;;7.23;;
8333;SDS011;4204;43.004;23.052;2022-10-26T08:00:16;10.27;;;6.17;;
8333;SDS011;4204;43.004;23.052;2022-10-26T08:02:44;8.63;;;5.20;;
8333;SDS011;4204;43.004;23.052;2022-10-26T08:05:11;11.37;;;6.23;;
8333;SDS011;4204;43.004;23.052;2022-10-26T08:07:39;10.27;;;6.40;;
8333;SDS011;4204;43.004;23.052;2022-10-26T08:10:10;9.17;;;5.40;;
8333;SDS011;4204;43.004;23.052;2022-10-26T08:12:38;7.20;;;5.20;;
8333;SDS011;4204;43.004;23.052;2022-10-26T08:15:06;9.00;;;5.63;;
8333;SDS011;4204;43.004;23.052;2022-10-26T08:17:35;8.20;;;5.37;;
8333;SDS011;4204;43.004;23.052;2022-10-26T08:20:03;7.87;;;5.33;;
8333;SDS011;4204;43.004;23.052;2022-10-26T08:22:31;12.00;;;8.00;;
8333;SDS011;4204;43.004;23.052;2022-10-26T08:24:59;9.73;;;5.57;;
8333;SDS011;4204;43.004;23.052;2022-10-26T08:27:28;11.30;;;5.70;;
8333;SDS011;4204;43.004;23.052;2022-10-26T08:29:56;8.40;;;5.73;;
8333;SDS011;4204;43.004;23.052;2022-10-26T08:32:23;11.73;;;6.40;;
8333;SDS011;4204;43.004;23.052;2022-10-26T08:34:51;7.27;;;5.20;;
8333;SDS011;4204;43.004;23.052;2022-10-26T08:37:19;10.43;;;5.93;;
8333;SDS011;4204;43.004;23.052;2022-10-26T08:39:49;8.17;;;5.23;;
8333;SDS011;4204;43.004;23.052;2022-10-26T08:42:17;7.50;;;4.80;;
8333;SDS011;4204;43.004;23.052;2022-10-26T08:44:51;7.50;;;5.43;;
8333;SDS011;4204;43.004;23.052;2022-10-26T08:47:24;10.03;;;5.40;;
8333;SDS011;4204;43.004;23.052;2022-10-26T08:49:57;8.50;;;5.00;;
8333;SDS011;4204;43.004;23.052;2022-10-26T08:52:29;9.50;;;5.50;;
8333;SDS011;4204;43.004;23.052;2022-10-26T08:55:03;7.70;;;4.70;;
8333;SDS011;4204;43.004;23.052;2022-10-26T08:57:37;6.83;;;5.03;;
8333;SDS011;4204;43.004;23.052;2022-10-26T09:00:11;8.77;;;4.70;;
8333;SDS011;4204;43.004;23.052;2022-10-26T09:02:43;6.67;;;4.73;;
8333;SDS011;4204;43.004;23.052;2022-10-26T09:05:14;8.47;;;4.53;;
8333;SDS011;4204;43.004;23.052;2022-10-26T09:07:46;9.10;;;5.10;;
8333;SDS011;4204;43.004;23.052;2022-10-26T09:13:18;7.53;;;4.40;;
8333;SDS011;4204;43.004;23.052;2022-10-26T09:15:55;5.97;;;4.27;;
8333;SDS011;4204;43.004;23.052;2022-10-26T09:18:33;4.50;;;3.97;;
8333;SDS011;4204;43.004;23.052;2022-10-26T09:21:15;9.20;;;5.87;;
8333;SDS011;4204;43.004;23.052;2022-10-26T09:23:58;9.83;;;4.97;;
8333;SDS011;4204;43.004;23.052;2022-10-26T09:26:32;5.63;;;4.00;;
8333;SDS011;4204;43.004;23.052;2022-10-26T09:29:05;8.33;;;6.17;;
8333;SDS011;4204;43.004;23.052;2022-10-26T09:31:41;12.60;;;7.93;;
8333;SDS011;4204;43.004;23.052;2022-10-26T09:34:15;7.80;;;5.60;;
8333;SDS011;4204;43.004;23.052;2022-10-26T09:36:50;6.83;;;4.50;;
8333;SDS011;4204;43.004;23.052;2022-10-26T09:39:22;6.73;;;3.63;;
8333;SDS011;4204;43.004;23.052;2022-10-26T09:41:56;4.50;;;3.93;;
8333;SDS011;4204;43.004;23.052;2022-10-26T09:44:28;5.40;;;4.10;;
8333;SDS011;4204;43.004;23.052;2022-10-26T09:47:03;5.27;;;3.40;;
8333;SDS011;4204;43.004;23.052;2022-10-26T09:49:40;7.40;;;4.50;;
8333;SDS011;4204;43.004;23.052;2022-10-26T09:52:13;4.90;;;3.93;;
8333;SDS011;4204;43.004;23.052;2022-10-26T09:54:41;7.00;;;3.87;;
8333;SDS011;4204;43.004;23.052;2022-10-26T09:57:09;6.47;;;4.50;;
8333;SDS011;4204;43.004;23.052;2022-10-26T09:59:42;9.30;;;4.97;;
8333;SDS011;4204;43.004;23.052;2022-10-26T10:02:36;6.13;;;4.00;;
8333;SDS011;4204;43.004;23.052;2022-10-26T10:08:14;6.43;;;5.10;;
8333;SDS011;4204;43.004;23.052;2022-10-26T10:10:54;8.23;;;5.57;;
8333;SDS011;4204;43.004;23.052;2022-10-26T10:13:28;5.77;;;4.40;;
8333;SDS011;4204;43.004;23.052;2022-10-26T10:16:00;4.53;;;3.93;;
8333;SDS011;4204;43.004;23.052;2022-10-26T10:18:31;6.10;;;3.80;;
8333;SDS011;4204;43.004;23.052;2022-10-26T10:21:01;5.57;;;4.27;;
8333;SDS011;4204;43.004;23.052;2022-10-26T10:23:31;5.27;;;4.20;;
8333;SDS011;4204;43.004;23.052;2022-10-26T10:26:06;4.67;;;4.00;;
8333;SDS011;4204;43.004;23.052;2022-10-26T10:28:36;6.13;;;3.83;;
8333;SDS011;4204;43.004;23.052;2022-10-26T10:31:18;6.47;;;4.13;;
8333;SDS011;4204;43.004;23.052;2022-10-26T10:33:48;6.17;;;4.10;;
8333;SDS011;4204;43.004;23.052;2022-10-26T10:36:18;5.77;;;3.97;;
8333;SDS011;4204;43.004;23.052;2022-10-26T10:38:49;4.83;;;3.43;;
8333;SDS011;4204;43.004;23.052;2022-10-26T10:41:19;4.13;;;3.63;;
8333;SDS011;4204;43.004;23.052;2022-10-26T10:43:51;3.97;;;3.13;;
8333;SDS011;4204;43.004;23.052;2022-10-26T10:46:22;3.53;;;2.50;;
8333;SDS011;4204;43.004;23.052;2022-10-26T10:49:01;4.50;;;2.50;;
8333;SDS011;4204;43.004;23.052;2022-10-26T10:51:32;4.13;;;3.13;;
8333;SDS011;4204;43.004;23.052;2022-10-26T10:54:04;4.17;;;3.20;;
8333;SDS011;4204;43.004;23.052;2022-10-26T10:56:44;5.23;;;2.80;;
8333;SDS011;4204;43.004;23.052;2022-10-26T10:59:23;3.67;;;2.60;;
8333;SDS011;4204;43.004;23.052;2022-10-26T11:02:11;4.80;;;2.50;;
8333;SDS011;4204;43.004;23.052;2022-10-26T11:05:02;4.40;;;3.03;;
8333;SDS011;4204;43.004;23.052;2022-10-26T11:07:41;4.00;;;2.13;;
8333;SDS011;4204;43.004;23.052;2022-10-26T11:10:16;3.50;;;2.50;;
8333;SDS011;4204;43.004;23.052;2022-10-26T11:12:48;3.17;;;2.20;;
8333;SDS011;4204;43.004;23.052;2022-10-26T11:15:22;2.67;;;2.47;;
8333;SDS011;4204;43.004;23.052;2022-10-26T11:17:55;3.70;;;2.10;;
8333;SDS011;4204;43.004;23.052;2022-10-26T11:20:31;4.23;;;2.27;;
8333;SDS011;4204;43.004;23.052;2022-10-26T11:23:03;3.83;;;2.30;;
8333;SDS011;4204;43.004;23.052;2022-10-26T11:25:40;2.63;;;2.17;;
8333;SDS011;4204;43.004;23.052;2022-10-26T11:28:12;1.90;;;1.80;;
8333;SDS011;4204;43.004;23.052;2022-10-26T11:30:45;3.27;;;2.00;;
8333;SDS011;4204;43.004;23.052;2022-10-26T11:33:18;5.20;;;2.40;;
8333;SDS011;4204;43.004;23.052;2022-10-26T11:35:54;3.47;;;2.33;;
8333;SDS011;4204;43.004;23.052;2022-10-26T11:38:28;3.87;;;2.70;;
8333;SDS011;4204;43.004;23.052;2022-10-26T11:41:00;2.23;;;1.93;;
8333;SDS011;4204;43.004;23.052;2022-10-26T11:43:36;2.57;;;1.93;;
8333;SDS011;4204;43.004;23.052;2022-10-26T11:46:07;3.40;;;1.80;;
8333;SDS011;4204;43.004;23.052;2022-10-26T11:48:40;1.70;;;1.60;;
8333;SDS011;4204;43.004;23.052;2022-10-26T11:51:16;4.33;;;2.77;;
8333;SDS011;4204;43.004;23.052;2022-10-26T11:54:03;2.13;;;1.80;;
8333;SDS011;4204;43.004;23.052;2022-10-26T11:56:39;2.30;;;1.90;;
8333;SDS011;4204;43.004;23.052;2022-10-26T11:59:14;2.67;;;2.13;;
8333;SDS011;4204;43.004;23.052;2022-10-26T12:01:46;3.03;;;2.10;;
8333;SDS011;4204;43.004;23.052;2022-10-26T12:04:16;2.13;;;1.73;;
8333;SDS011;4204;43.004;23.052;2022-10-26T12:06:47;2.43;;;2.00;;
8333;SDS011;4204;43.004;23.052;2022-10-26T12:09:19;3.30;;;2.00;;
8333;SDS011;4204;43.004;23.052;2022-10-26T12:11:51;3.17;;;1.90;;
8333;SDS011;4204;43.004;23.052;2022-10-26T12:14:26;3.77;;;1.80;;
8333;SDS011;4204;43.004;23.052;2022-10-26T12:17:01;1.67;;;1.40;;
8333;SDS011;4204;43.004;23.052;2022-10-26T12:19:38;4.60;;;1.87;;
8333;SDS011;4204;43.004;23.052;2022-10-26T12:22:15;3.63;;;1.70;;
8333;SDS011;4204;43.004;23.052;2022-10-26T12:24:45;2.30;;;1.80;;
8333;SDS011;4204;43.004;23.052;2022-10-26T12:27:33;1.77;;;1.53;;
8333;SDS011;4204;43.004;23.052;2022-10-26T12:30:27;3.03;;;1.87;;
8333;SDS011;4204;43.004;23.052;2022-10-26T12:32:56;3.20;;;2.13;;
8333;SDS011;4204;43.004;23.052;2022-10-26T12:35:32;2.50;;;1.60;;
8333;SDS011;4204;43.004;23.052;2022-10-26T12:38:25;5.07;;;2.10;;
8333;SDS011;4204;43.004;23.052;2022-10-26T12:41:13;2.23;;;1.40;;
8333;SDS011;4204;43.004;23.052;2022-10-26T12:43:48;1.77;;;1.30;;
8333;SDS011;4204;43.004;23.052;2022-10-26T12:52:20;2.00;;;1.60;;
8333;SDS011;4204;43.004;23.052;2022-10-26T12:55:00;1.30;;;1.20;;
8333;SDS011;4204;43.004;23.052;2022-10-26T12:57:57;1.57;;;1.37;;
8333;SDS011;4204;43.004;23.052;2022-10-26T13:00:47;2.03;;;1.60;;
8333;SDS011;4204;43.004;23.052;2022-10-26T13:03:34;1.77;;;1.50;;
8333;SDS011;4204;43.004;23.052;2022-10-26T13:06:15;1.87;;;1.40;;
8333;SDS011;4204;43.004;23.052;2022-10-26T13:08:55;6.10;;;2.63;;
8333;SDS011;4204;43.004;23.052;2022-10-26T13:11:27;8.63;;;4.70;;
8333;SDS011;4204;43.004;23.052;2022-10-26T13:13:59;2.87;;;1.93;;
8333;SDS011;4204;43.004;23.052;2022-10-26T13:16:30;1.20;;;1.10;;
8333;SDS011;4204;43.004;23.052;2022-10-26T13:18:58;1.33;;;1.20;;
8333;SDS011;4204;43.004;23.052;2022-10-26T13:21:26;1.13;;;1.03;;
8333;SDS011;4204;43.004;23.052;2022-10-26T13:23:55;7.33;;;1.60;;
8333;SDS011;4204;43.004;23.052;2022-10-26T13:26:28;1.67;;;1.40;;
8333;SDS011;4204;43.004;23.052;2022-10-26T13:28:57;2.13;;;1.40;;
8333;SDS011;4204;43.004;23.052;2022-10-26T13:34:20;1.80;;;1.60;;
8333;SDS011;4204;43.004;23.052;2022-10-26T13:36:50;2.20;;;1.70;;
8333;SDS011;4204;43.004;23.052;2022-10-26T13:39:25;1.90;;;1.60;;
8333;SDS011;4204;43.004;23.052;2022-10-26T13:41:57;3.93;;;1.50;;
8333;SDS011;4204;43.004;23.052;2022-10-26T13:44:27;1.63;;;1.37;;
8333;SDS011;4204;43.004;23.052;2022-10-26T13:47:02;2.03;;;1.70;;
8333;SDS011;4204;43.004;23.052;2022-10-26T13:49:35;7.03;;;1.80;;
8333;SDS011;4204;43.004;23.052;2022-10-26T13:52:10;2.93;;;1.73;;
8333;SDS011;4204;43.004;23.052;2022-10-26T13:54:43;2.63;;;1.80;;
8333;SDS011;4204;43.004;23.052;2022-10-26T13:57:18;2.63;;;1.73;;
8333;SDS011;4204;43.004;23.052;2022-10-26T13:59:47;2.20;;;1.70;;
8333;SDS011;4204;43.004;23.052;2022-10-26T14:02:17;3.07;;;2.33;;
8333;SDS011;4204;43.004;23.052;2022-10-26T14:04:51;1.97;;;1.70;;
8333;SDS011;4204;43.004;23.052;2022-10-26T14:07:21;3.23;;;1.63;;
8333;SDS011;4204;43.004;23.052;2022-10-26T14:09:51;5.10;;;2.40;;
8333;SDS011;4204;43.004;23.052;2022-10-26T14:12:22;6.83;;;4.33;;
8333;SDS011;4204;43.004;23.052;2022-10-26T14:16:53;7.47;;;6.67;;
8333;SDS011;4204;43.004;23.052;2022-10-26T14:19:24;2.60;;;2.40;;
8333;SDS011;4204;43.004;23.052;2022-10-26T14:21:53;2.87;;;2.00;;
8333;SDS011;4204;43.004;23.052;2022-10-26T14:24:23;1.80;;;1.70;;
8333;SDS011;4204;43.004;23.052;2022-10-26T14:26:54;5.27;;;1.70;;
8333;SDS011;4204;43.004;23.052;2022-10-26T14:29:22;2.00;;;1.80;;
8333;SDS011;4204;43.004;23.052;2022-10-26T14:31:53;1.50;;;1.40;;
8333;SDS011;4204;43.004;23.052;2022-10-26T14:34:22;3.53;;;1.67;;
8333;SDS011;4204;43.004;23.052;2022-10-26T14:36:51;7.57;;;2.67;;
8333;SDS011;4204;43.004;23.052;2022-10-26T14:39:23;2.60;;;1.63;;
8333;SDS011;4204;43.004;23.052;2022-10-26T14:41:57;2.90;;;1.77;;
8333;SDS011;4204;43.004;23.052;2022-10-26T14:44:27;4.27;;;2.47;;
8333;SDS011;4204;43.004;23.052;2022-10-26T14:46:57;4.17;;;2.27;;
8333;SDS011;4204;43.004;23.052;2022-10-26T14:49:26;2.27;;;1.73;;
8333;SDS011;4204;43.004;23.052;2022-10-26T14:51:55;5.37;;;2.17;;
8333;SDS011;4204;43.004;23.052;2022-10-26T14:54:24;5.73;;;1.90;;
8333;SDS011;4204;43.004;23.052;2022-10-26T14:56:53;3.93;;;1.87;;
8333;SDS011;4204;43.004;23.052;2022-10-26T14:59:24;3.33;;;1.90;;
8333;SDS011;4204;43.004;23.052;2022-10-26T15:01:53;2.83;;;1.73;;
8333;SDS011;4204;43.004;23.052;2022-10-26T15:04:30;5.87;;;1.90;;
8333;SDS011;4204;43.004;23.052;2022-10-26T15:09:45;5.80;;;2.20;;
8333;SDS011;4204;43.004;23.052;2022-10-26T15:12:18;5.07;;;2.10;;
8333;SDS011;4204;43.004;23.052;2022-10-26T15:14:53;4.57;;;2.07;;
8333;SDS011;4204;43.004;23.052;2022-10-26T15:17:23;2.83;;;1.73;;
8333;SDS011;4204;43.004;23.052;2022-10-26T15:19:58;11.57;;;5.77;;
8333;SDS011;4204;43.004;23.052;2022-10-26T15:22:30;53.97;;;20.17;;
8333;SDS011;4204;43.004;23.052;2022-10-26T15:25:00;52.60;;;21.03;;
8333;SDS011;4204;43.004;23.052;2022-10-26T15:27:30;58.57;;;19.93;;
8333;SDS011;4204;43.004;23.052;2022-10-26T15:30:12;60.70;;;16.97;;
8333;SDS011;4204;43.004;23.052;2022-10-26T15:32:44;21.13;;;11.23;;
8333;SDS011;4204;43.004;23.052;2022-10-26T15:35:15;19.50;;;10.70;;
8333;SDS011;4204;43.004;23.052;2022-10-26T15:37:51;7.60;;;4.00;;
8333;SDS011;4204;43.004;23.052;2022-10-26T15:40:20;8.03;;;3.80;;
8333;SDS011;4204;43.004;23.052;2022-10-26T15:42:49;5.63;;;3.30;;
8333;SDS011;4204;43.004;23.052;2022-10-26T15:45:18;7.40;;;4.80;;
8333;SDS011;4204;43.004;23.052;2022-10-26T15:47:48;82.80;;;54.83;;
8333;SDS011;4204;43.004;23.052;2022-10-26T15:50:19;21.43;;;14.37;;